Alton, KS

4:10 AM CST on February 13, 2016 (GMT -0600)
Storm Spotter Kaelan Cameron | | Change Station
CLOSE
Current Station
Personal Weather Station
Location: Osborne, KS
Elevation: 1575 ft
Nearby Weather Stations

Elev 1575 ft 39.44 °N, 98.69 °W | Updated 9 seconds ago

Overcast
Overcast
21.6 °F
Feels Like 22 °F
N
2.0
Wind Variable Wind from SE
Gusts 2.5 mph

Today
High -- | Low -- °F
--% Chance of Precip.
Yesterday
High -- | Low -- °F
Precip. -- in
Pressure 30.53 in
Visibility 10.0 miles
Clouds Clear
Windchill 22 °F
Dew Point 14 °F
Humidity 72%
Rainfall 0.00 in
Snow Depth Not available.
7:30 AM 6:09 PM
Waxing Crescent, 29% visible
METAR KRSL 130953Z AUTO 07007KT 10SM CLR M07/M09 A3046 RMK AO2 SLP336 T10721094
Pressure 30.53 in
Visibility 10.0 miles
Clouds Clear
Windchill 22 °F
Dew Point 14 °F
Humidity 72%
Rainfall 0.00 in
Snow Depth Not available.
7:30 AM 6:09 PM
Waxing Crescent, 29% visible
METAR KRSL 130953Z AUTO 07007KT 10SM CLR M07/M09 A3046 RMK AO2 SLP336 T10721094

10-Day Weather Forecast

Almanac

Astronomy

Feb. 13, 2016 Rise Set
Actual Time
Civil Twilight
Nautical Twilight
Astronomical Twilight
Moon
Length of Visible Light
Length of Day
Tomorrow will be .
, % of the Moon is Illuminated

Today's Extremes

State Highs State Lows

Community

WunderPhotos

Upload Photos

1,892,536 photos uploaded!

WunderBlog® & News

Nearby

Air Quality

  Air Quality AQ Index Pollutant
Not available.

Snow Depth

Station Depth Elevation

Earthquake Activity

City Distance Mag. Time & Date
Minimum magnitude displayed is 2.5.

Coastal Water Temperatures

Place Temperature

Stations

Nearby Weather Stations

Station Location Temp. Windchill Dew Point Humidity Wind Precip. Elev Updated Type
                   

Watches & Warnings

There are currently no watches in effect.